createdAt,value
2018-09-27T00:09:46.119Z,1024.42
2018-09-27T00:14:43.172Z,1024.39
2018-09-27T00:19:39.907Z,1024.47
2018-09-27T00:24:36.394Z,1024.45
2018-09-27T00:29:32.030Z,1024.42
2018-09-27T00:34:27.834Z,1024.51
2018-09-27T00:39:24.748Z,1024.49
2018-09-27T00:44:21.198Z,1024.44
2018-09-27T00:49:16.763Z,1024.40
2018-09-27T00:54:13.355Z,1024.41
2018-09-27T00:59:08.959Z,1024.32
2018-09-27T01:04:04.656Z,1024.37
2018-09-27T01:09:00.196Z,1024.41
2018-09-27T01:13:55.990Z,1024.32
2018-09-27T01:18:51.767Z,1024.19
2018-09-27T01:23:47.632Z,1024.18
2018-09-27T01:28:43.376Z,1024.19
2018-09-27T01:33:39.309Z,1024.21
2018-09-27T01:38:36.184Z,1024.14
2018-09-27T01:43:31.906Z,1024.07
2018-09-27T01:48:28.172Z,1024.05
2018-09-27T01:53:24.922Z,1024.05
2018-09-27T01:58:20.891Z,1023.93
2018-09-27T02:03:16.988Z,1023.90
2018-09-27T02:08:12.861Z,1023.98
2018-09-27T02:13:08.676Z,1023.83
2018-09-27T02:18:04.836Z,1023.80
2018-09-27T02:23:00.716Z,1023.76
2018-09-27T02:27:56.862Z,1023.70
2018-09-27T02:32:52.368Z,1023.55
2018-09-27T02:37:48.329Z,1023.57
2018-09-27T02:42:44.441Z,1023.62
2018-09-27T02:47:40.284Z,1023.62
2018-09-27T02:52:36.189Z,1023.51
2018-09-27T02:57:31.700Z,1023.47
2018-09-27T03:02:28.004Z,1023.44
2018-09-27T03:07:24.591Z,1023.48
2018-09-27T03:12:21.449Z,1023.36
2018-09-27T03:17:17.032Z,1023.32
2018-09-27T03:22:13.023Z,1023.32
2018-09-27T03:27:09.286Z,1023.36
2018-09-27T03:32:05.941Z,1023.25
2018-09-27T03:37:01.535Z,1023.31
2018-09-27T03:41:57.641Z,1023.36
2018-09-27T03:46:53.495Z,1023.27
2018-09-27T03:51:49.109Z,1023.17
2018-09-27T03:56:44.964Z,1023.25
2018-09-27T04:01:40.847Z,1023.13
2018-09-27T04:06:36.641Z,1023.18
2018-09-27T04:11:33.483Z,1023.03
2018-09-27T04:16:29.334Z,1023.11
2018-09-27T04:21:26.114Z,1023.07
2018-09-27T04:26:21.909Z,1023.06
2018-09-27T04:31:17.819Z,1023.02
2018-09-27T04:36:13.649Z,1023.04
2018-09-27T04:41:10.471Z,1023.07
2018-09-27T04:46:06.035Z,1023.03
2018-09-27T04:51:01.949Z,1022.91
2018-09-27T04:55:58.047Z,1022.95
2018-09-27T05:00:53.977Z,1022.97
2018-09-27T05:05:49.770Z,1022.98
2018-09-27T05:10:45.373Z,1022.96
2018-09-27T05:15:42.628Z,1023.02
2018-09-27T05:20:38.636Z,1023.09
2018-09-27T05:25:35.119Z,1022.98
2018-09-27T05:30:31.066Z,1023.00
2018-09-27T05:35:27.098Z,1022.94
2018-09-27T05:40:23.905Z,1022.98
2018-09-27T05:45:19.524Z,1022.95
2018-09-27T05:50:15.454Z,1022.96
2018-09-27T05:55:11.969Z,1022.94
2018-09-27T06:00:07.913Z,1023.01
2018-09-27T06:05:04.613Z,1022.89
2018-09-27T06:10:01.664Z,1022.93
2018-09-27T06:14:58.734Z,1022.94
2018-09-27T06:19:54.790Z,1022.93
2018-09-27T06:24:50.492Z,1022.98
2018-09-27T06:29:47.437Z,1022.96
2018-09-27T06:34:43.011Z,1022.99
2018-09-27T06:39:38.854Z,1022.98
2018-09-27T06:44:36.386Z,1022.88
2018-09-27T06:49:31.956Z,1023.00
2018-09-27T06:54:29.140Z,1022.91
2018-09-27T06:59:24.801Z,1022.92
2018-09-27T07:04:20.646Z,1022.85
2018-09-27T07:09:17.523Z,1022.80
2018-09-27T07:14:12.978Z,1022.80
2018-09-27T07:19:10.269Z,1022.77
2018-09-27T07:24:05.659Z,1022.76
2018-09-27T07:29:01.663Z,1022.72
2018-09-27T07:33:57.573Z,1022.84
2018-09-27T07:38:54.228Z,1022.91
2018-09-27T07:43:51.377Z,1022.83
2018-09-27T07:48:48.532Z,1022.86
2018-09-27T07:53:44.054Z,1022.85
2018-09-27T07:58:40.398Z,1022.91
2018-09-27T08:03:36.423Z,1022.78
2018-09-27T08:08:33.675Z,1022.74
2018-09-27T08:13:30.532Z,1022.72
2018-09-27T08:18:26.680Z,1022.69
2018-09-27T08:23:22.672Z,1022.64
2018-09-27T08:28:18.617Z,1022.62
2018-09-27T08:33:14.506Z,1022.59
2018-09-27T08:38:11.056Z,1022.56
2018-09-27T08:43:06.983Z,1022.48
2018-09-27T08:48:02.792Z,1022.51
2018-09-27T08:53:00.022Z,1022.47
2018-09-27T08:57:55.598Z,1022.31
2018-09-27T09:02:51.370Z,1022.26
2018-09-27T09:07:48.202Z,1022.16
2018-09-27T09:12:44.073Z,1022.08
2018-09-27T09:17:40.262Z,1022.09
2018-09-27T09:22:36.043Z,1021.97
2018-09-27T09:27:31.999Z,1021.89
2018-09-27T09:32:27.950Z,1021.79
2018-09-27T09:37:23.700Z,1021.71
2018-09-27T09:42:20.176Z,1021.84
2018-09-27T09:47:16.155Z,1021.67
2018-09-27T09:52:13.214Z,1021.67
2018-09-27T09:57:09.447Z,1021.53
2018-09-27T10:02:05.665Z,1021.44
2018-09-27T10:07:02.305Z,1021.37
2018-09-27T10:11:58.080Z,1021.30
2018-09-27T10:16:55.470Z,1021.19
2018-09-27T10:21:51.163Z,1021.14
2018-09-27T10:26:47.958Z,1021.07
2018-09-27T10:31:44.121Z,1020.92
2018-09-27T10:36:41.540Z,1020.87
2018-09-27T10:41:37.171Z,1020.85
2018-09-27T10:46:33.833Z,1020.82
2018-09-27T10:51:30.090Z,1020.84
2018-09-27T10:56:26.050Z,1020.77
2018-09-27T11:01:24.283Z,1020.73
2018-09-27T11:06:22.456Z,1020.69
2018-09-27T11:11:20.095Z,1020.55
2018-09-27T11:16:16.406Z,1020.50
2018-09-27T11:21:12.816Z,1020.48
2018-09-27T11:26:10.378Z,1020.42
2018-09-27T11:31:06.889Z,1020.24
2018-09-27T11:36:02.803Z,1020.13
2018-09-27T11:41:00.063Z,1020.03
2018-09-27T11:45:56.331Z,1019.92
2018-09-27T11:50:51.424Z,1019.79
2018-09-27T11:55:46.843Z,1019.67
2018-09-27T12:00:42.326Z,1019.53
2018-09-27T12:05:39.074Z,1019.42
2018-09-27T12:10:35.986Z,1019.34
2018-09-27T12:15:32.813Z,1019.18
2018-09-27T12:20:30.591Z,1019.13
2018-09-27T12:25:25.687Z,1019.10
2018-09-27T12:30:20.947Z,1019.00
2018-09-27T12:35:16.647Z,1019.04
2018-09-27T12:40:12.409Z,1018.87
2018-09-27T12:45:08.174Z,1018.86
2018-09-27T12:55:06.683Z,1018.86
2018-09-27T13:00:02.570Z,1018.66
2018-09-27T13:04:59.328Z,1018.58
2018-09-27T13:09:56.207Z,1018.61
2018-09-27T13:14:52.264Z,1018.42
2018-09-27T13:19:48.147Z,1018.35
2018-09-27T13:24:44.166Z,1018.30
2018-09-27T13:29:40.890Z,1018.18
2018-09-27T13:34:36.599Z,1018.21
2018-09-27T13:39:33.727Z,1018.11
2018-09-27T13:44:30.476Z,1018.00
2018-09-27T13:49:26.033Z,1017.96
2018-09-27T13:54:23.607Z,1017.89
2018-09-27T13:59:19.309Z,1017.85
2018-09-27T14:04:15.783Z,1017.63
2018-09-27T14:09:11.771Z,1017.62
2018-09-27T14:14:08.169Z,1017.46
2018-09-27T14:19:04.605Z,1017.52
2018-09-27T14:24:01.549Z,1017.34
2018-09-27T14:28:57.627Z,1017.30
2018-09-27T14:33:54.651Z,1017.35
2018-09-27T14:38:50.665Z,1017.30
2018-09-27T14:43:46.847Z,1017.20
2018-09-27T14:48:43.557Z,1017.22
2018-09-27T14:53:39.402Z,1017.10
2018-09-27T14:58:35.675Z,1017.00
2018-09-27T15:03:31.957Z,1016.96
2018-09-27T15:08:28.969Z,1016.91
2018-09-27T15:13:25.672Z,1016.79
2018-09-27T15:18:22.218Z,1016.81
2018-09-27T15:23:18.038Z,1016.76
2018-09-27T15:28:13.655Z,1016.74
2018-09-27T15:33:11.507Z,1016.71
2018-09-27T15:38:06.799Z,1016.65
2018-09-27T15:43:04.351Z,1016.49
2018-09-27T15:47:59.798Z,1016.50
2018-09-27T15:52:55.672Z,1016.50
2018-09-27T15:57:51.366Z,1016.32
2018-09-27T16:02:47.962Z,1016.30
2018-09-27T16:07:43.377Z,1016.25
2018-09-27T16:12:39.199Z,1016.14
2018-09-27T16:17:35.665Z,1016.22
2018-09-27T16:22:31.995Z,1016.26
2018-09-27T16:27:27.729Z,1016.11
2018-09-27T16:32:24.732Z,1016.07
2018-09-27T16:37:20.638Z,1016.09
2018-09-27T16:42:17.411Z,1016.17
2018-09-27T16:47:12.930Z,1016.07
2018-09-27T16:52:08.610Z,1016.06
2018-09-27T16:57:05.693Z,1015.97
2018-09-27T17:02:01.137Z,1015.96
2018-09-27T17:06:57.203Z,1015.98
2018-09-27T17:11:53.266Z,1015.89
2018-09-27T17:16:48.936Z,1015.85
2018-09-27T17:21:46.571Z,1015.84
2018-09-27T17:26:41.830Z,1015.77
2018-09-27T17:31:37.757Z,1015.76
2018-09-27T17:36:33.356Z,1015.73
2018-09-27T17:41:29.646Z,1015.57
2018-09-27T17:46:26.749Z,1015.61
2018-09-27T17:51:23.716Z,1015.63
2018-09-27T17:56:19.104Z,1015.57
2018-09-27T18:01:16.181Z,1015.67
2018-09-27T18:06:11.756Z,1015.74
2018-09-27T18:11:08.831Z,1015.68
2018-09-27T18:16:04.161Z,1015.61
2018-09-27T18:21:01.270Z,1015.63
2018-09-27T18:25:56.356Z,1015.62
2018-09-27T18:30:52.678Z,1015.59
2018-09-27T18:35:48.448Z,1015.63
2018-09-27T18:40:45.386Z,1015.62
2018-09-27T18:45:41.473Z,1015.66
2018-09-27T18:50:37.072Z,1015.69
2018-09-27T18:55:32.879Z,1015.67
2018-09-27T19:00:28.654Z,1015.65
2018-09-27T19:05:25.602Z,1015.71
2018-09-27T19:10:22.321Z,1015.68
2018-09-27T19:15:17.887Z,1015.63
2018-09-27T19:20:13.787Z,1015.68
2018-09-27T19:25:09.741Z,1015.65
2018-09-27T19:30:05.431Z,1015.54
2018-09-27T19:35:02.243Z,1015.55
2018-09-27T19:39:57.786Z,1015.49
2018-09-27T19:44:53.757Z,1015.49
2018-09-27T19:49:50.477Z,1015.47
2018-09-27T19:54:45.987Z,1015.48
2018-09-27T19:59:41.728Z,1015.36
2018-09-27T20:04:38.728Z,1015.40
2018-09-27T20:09:35.389Z,1015.33
2018-09-27T20:14:31.027Z,1015.29
2018-09-27T20:19:26.870Z,1015.27
2018-09-27T20:24:22.685Z,1015.38
2018-09-27T20:29:18.487Z,1015.34
2018-09-27T20:34:15.359Z,1015.34
2018-09-27T20:39:10.901Z,1015.37
2018-09-27T20:44:07.807Z,1015.27
2018-09-27T20:49:03.196Z,1015.39
2018-09-27T20:53:59.497Z,1015.22
2018-09-27T20:58:55.703Z,1015.24
2018-09-27T21:03:51.333Z,1015.32
2018-09-27T21:08:47.199Z,1015.26
2018-09-27T21:13:42.970Z,1015.28
2018-09-27T21:18:38.592Z,1015.21
2018-09-27T21:23:35.352Z,1015.26
2018-09-27T21:28:31.486Z,1015.15
2018-09-27T21:33:27.891Z,1015.08
2018-09-27T21:38:22.948Z,1015.18
2018-09-27T21:43:18.973Z,1015.11
2018-09-27T21:48:16.416Z,1015.20
2018-09-27T21:53:12.098Z,1015.07
2018-09-27T21:58:07.709Z,1015.03
2018-09-27T22:03:04.603Z,1014.96
2018-09-27T22:08:01.231Z,1014.83
2018-09-27T22:12:56.846Z,1014.84
2018-09-27T22:17:53.467Z,1014.84
2018-09-27T22:22:50.011Z,1014.91
2018-09-27T22:27:45.800Z,1014.85
2018-09-27T22:32:43.064Z,1014.87
2018-09-27T22:37:38.699Z,1014.92
2018-09-27T22:42:34.474Z,1014.92
2018-09-27T22:47:31.302Z,1014.88
2018-09-27T22:52:26.933Z,1014.82
2018-09-27T22:57:22.785Z,1014.81
2018-09-27T23:02:18.310Z,1014.96
2018-09-27T23:07:14.272Z,1014.95
2018-09-27T23:12:09.990Z,1015.00
2018-09-27T23:17:05.665Z,1015.03
2018-09-27T23:22:01.518Z,1015.02
2018-09-27T23:26:59.573Z,1015.07
2018-09-27T23:31:55.838Z,1015.11
2018-09-27T23:36:52.513Z,1015.04
2018-09-27T23:41:49.069Z,1015.06
2018-09-27T23:46:45.736Z,1014.95
2018-09-27T23:51:42.164Z,1015.03
2018-09-27T23:56:37.790Z,1014.96
